sensor_id;sensor_type;location;lat;lon;timestamp;pressure;altitude;pressure_sealevel;temperature;humidity
50790;BME280;37287;47.554;7.844;2023-07-29T00:00:58;97497.63;;;17.25;100.00
50790;BME280;37287;47.554;7.844;2023-07-29T00:03:50;97499.66;;;17.21;100.00
50790;BME280;37287;47.554;7.844;2023-07-29T00:06:41;97495.13;;;17.14;100.00
50790;BME280;37287;47.554;7.844;2023-07-29T00:09:33;97494.13;;;17.08;100.00
50790;BME280;37287;47.554;7.844;2023-07-29T00:12:24;97483.78;;;16.99;100.00
50790;BME280;37287;47.554;7.844;2023-07-29T00:15:15;97479.59;;;16.95;100.00
50790;BME280;37287;47.554;7.844;2023-07-29T00:18:06;97481.34;;;16.85;100.00
50790;BME280;37287;47.554;7.844;2023-07-29T00:20:56;97480.34;;;16.79;100.00
50790;BME280;37287;47.554;7.844;2023-07-29T00:23:48;97467.84;;;16.78;100.00
50790;BME280;37287;47.554;7.844;2023-07-29T00:26:38;97471.44;;;16.75;100.00
50790;BME280;37287;47.554;7.844;2023-07-29T00:29:29;97469.75;;;16.64;100.00
50790;BME280;37287;47.554;7.844;2023-07-29T00:32:20;97474.84;;;16.62;100.00
50790;BME280;37287;47.554;7.844;2023-07-29T00:35:11;97475.63;;;16.63;100.00
50790;BME280;37287;47.554;7.844;2023-07-29T00:38:01;97472.13;;;16.62;100.00
50790;BME280;37287;47.554;7.844;2023-07-29T00:40:52;97461.19;;;16.62;100.00
50790;BME280;37287;47.554;7.844;2023-07-29T00:43:45;97454.53;;;16.63;100.00
50790;BME280;37287;47.554;7.844;2023-07-29T00:46:39;97467.34;;;16.66;100.00
50790;BME280;37287;47.554;7.844;2023-07-29T00:49:32;97460.50;;;16.75;100.00
50790;BME280;37287;47.554;7.844;2023-07-29T00:52:24;97459.75;;;16.74;100.00
50790;BME280;37287;47.554;7.844;2023-07-29T00:55:15;97445.66;;;16.76;100.00
50790;BME280;37287;47.554;7.844;2023-07-29T00:58:06;97454.34;;;16.71;100.00
50790;BME280;37287;47.554;7.844;2023-07-29T01:09:41;97459.56;;;16.65;100.00
50790;BME280;37287;47.554;7.844;2023-07-29T01:12:21;97467.28;;;16.70;100.00
50790;BME280;37287;47.554;7.844;2023-07-29T01:18:08;97448.91;;;16.87;100.00
50790;BME280;37287;47.554;7.844;2023-07-29T01:20:40;97453.69;;;16.83;100.00
50790;BME280;37287;47.554;7.844;2023-07-29T01:23:13;97448.66;;;16.81;100.00
50790;BME280;37287;47.554;7.844;2023-07-29T01:25:43;97447.84;;;16.81;100.00
50790;BME280;37287;47.554;7.844;2023-07-29T01:28:09;97449.41;;;16.82;100.00
50790;BME280;37287;47.554;7.844;2023-07-29T01:30:39;97453.31;;;16.81;100.00
50790;BME280;37287;47.554;7.844;2023-07-29T01:33:25;97459.16;;;16.83;100.00
50790;BME280;37287;47.554;7.844;2023-07-29T01:36:03;97456.91;;;16.78;100.00
50790;BME280;37287;47.554;7.844;2023-07-29T01:38:35;97460.50;;;16.75;100.00
50790;BME280;37287;47.554;7.844;2023-07-29T01:41:03;97457.88;;;16.71;100.00
50790;BME280;37287;47.554;7.844;2023-07-29T01:43:55;97456.75;;;16.68;100.00
50790;BME280;37287;47.554;7.844;2023-07-29T01:46:29;97457.94;;;16.67;100.00
50790;BME280;37287;47.554;7.844;2023-07-29T01:49:24;97452.81;;;16.70;100.00
50790;BME280;37287;47.554;7.844;2023-07-29T01:51:56;97465.97;;;16.75;100.00
50790;BME280;37287;47.554;7.844;2023-07-29T01:54:28;97462.75;;;16.80;100.00
50790;BME280;37287;47.554;7.844;2023-07-29T01:56:59;97455.56;;;16.86;100.00
50790;BME280;37287;47.554;7.844;2023-07-29T01:59:28;97457.97;;;16.84;100.00
50790;BME280;37287;47.554;7.844;2023-07-29T02:01:55;97451.28;;;16.85;100.00
50790;BME280;37287;47.554;7.844;2023-07-29T02:04:46;97448.06;;;16.90;100.00
50790;BME280;37287;47.554;7.844;2023-07-29T02:07:41;97436.81;;;16.88;100.00
50790;BME280;37287;47.554;7.844;2023-07-29T02:10:34;97446.94;;;16.88;100.00
50790;BME280;37287;47.554;7.844;2023-07-29T02:13:05;97445.00;;;16.88;100.00
50790;BME280;37287;47.554;7.844;2023-07-29T02:15:31;97436.41;;;16.86;100.00
50790;BME280;37287;47.554;7.844;2023-07-29T02:18:01;97441.19;;;16.82;100.00
50790;BME280;37287;47.554;7.844;2023-07-29T02:20:31;97436.59;;;16.79;100.00
50790;BME280;37287;47.554;7.844;2023-07-29T02:23:01;97442.75;;;16.83;100.00
50790;BME280;37287;47.554;7.844;2023-07-29T02:25:28;97439.53;;;16.88;100.00
50790;BME280;37287;47.554;7.844;2023-07-29T02:27:59;97444.56;;;16.90;100.00
50790;BME280;37287;47.554;7.844;2023-07-29T02:30:28;97436.09;;;16.84;100.00
50790;BME280;37287;47.554;7.844;2023-07-29T02:32:59;97440.88;;;16.80;100.00
50790;BME280;37287;47.554;7.844;2023-07-29T02:35:31;97446.34;;;16.80;100.00
50790;BME280;37287;47.554;7.844;2023-07-29T02:38:03;97448.22;;;16.83;100.00
50790;BME280;37287;47.554;7.844;2023-07-29T02:40:32;97451.63;;;16.87;100.00
50790;BME280;37287;47.554;7.844;2023-07-29T02:43:22;97452.50;;;16.84;100.00
50790;BME280;37287;47.554;7.844;2023-07-29T02:45:53;97449.66;;;16.88;100.00
50790;BME280;37287;47.554;7.844;2023-07-29T02:48:23;97451.22;;;16.89;100.00
50790;BME280;37287;47.554;7.844;2023-07-29T02:50:49;97453.88;;;16.92;100.00
50790;BME280;37287;47.554;7.844;2023-07-29T02:53:22;97450.03;;;16.90;100.00
50790;BME280;37287;47.554;7.844;2023-07-29T02:55:53;97459.84;;;16.87;100.00
50790;BME280;37287;47.554;7.844;2023-07-29T02:58:44;97465.06;;;16.81;100.00
50790;BME280;37287;47.554;7.844;2023-07-29T03:01:37;97457.59;;;16.82;100.00
50790;BME280;37287;47.554;7.844;2023-07-29T03:04:09;97468.75;;;16.91;100.00
50790;BME280;37287;47.554;7.844;2023-07-29T03:06:44;97457.38;;;16.93;100.00
50790;BME280;37287;47.554;7.844;2023-07-29T03:09:23;97456.28;;;16.90;100.00
50790;BME280;37287;47.554;7.844;2023-07-29T03:11:53;97462.94;;;16.89;100.00
50790;BME280;37287;47.554;7.844;2023-07-29T03:14:21;97456.69;;;16.89;100.00
50790;BME280;37287;47.554;7.844;2023-07-29T03:16:52;97447.47;;;16.82;100.00
50790;BME280;37287;47.554;7.844;2023-07-29T03:19:20;97455.81;;;16.75;100.00
50790;BME280;37287;47.554;7.844;2023-07-29T03:22:12;97444.09;;;16.75;100.00
50790;BME280;37287;47.554;7.844;2023-07-29T03:24:44;97451.63;;;16.71;100.00
50790;BME280;37287;47.554;7.844;2023-07-29T03:37:15;97432.34;;;16.61;100.00
50790;BME280;37287;47.554;7.844;2023-07-29T03:40:07;97429.25;;;16.59;100.00
50790;BME280;37287;47.554;7.844;2023-07-29T03:42:59;97427.69;;;16.58;100.00
50790;BME280;37287;47.554;7.844;2023-07-29T03:45:50;97438.63;;;16.58;100.00
50790;BME280;37287;47.554;7.844;2023-07-29T03:48:21;97428.81;;;16.61;100.00
50790;BME280;37287;47.554;7.844;2023-07-29T03:50:47;97428.06;;;16.60;100.00
50790;BME280;37287;47.554;7.844;2023-07-29T03:53:16;97427.19;;;16.63;100.00
50790;BME280;37287;47.554;7.844;2023-07-29T03:55:47;97430.38;;;16.62;100.00
50790;BME280;37287;47.554;7.844;2023-07-29T03:58:13;97424.97;;;16.58;100.00
50790;BME280;37287;47.554;7.844;2023-07-29T04:00:43;97422.66;;;16.57;100.00
50790;BME280;37287;47.554;7.844;2023-07-29T04:03:13;97423.44;;;16.57;100.00
50790;BME280;37287;47.554;7.844;2023-07-29T04:05:44;97420.72;;;16.57;100.00
50790;BME280;37287;47.554;7.844;2023-07-29T04:08:10;97418.31;;;16.59;100.00
50790;BME280;37287;47.554;7.844;2023-07-29T04:10:42;97427.69;;;16.58;100.00
50790;BME280;37287;47.554;7.844;2023-07-29T04:13:09;97424.13;;;16.61;100.00
50790;BME280;37287;47.554;7.844;2023-07-29T04:15:39;97424.91;;;16.62;100.00
50790;BME280;37287;47.554;7.844;2023-07-29T04:18:16;97428.81;;;16.61;100.00
50790;BME280;37287;47.554;7.844;2023-07-29T04:20:47;97430.44;;;16.58;100.00
50790;BME280;37287;47.554;7.844;2023-07-29T04:23:13;97437.88;;;16.58;100.00
50790;BME280;37287;47.554;7.844;2023-07-29T04:25:45;97435.13;;;16.58;100.00
50790;BME280;37287;47.554;7.844;2023-07-29T04:28:12;97444.88;;;16.59;100.00
50790;BME280;37287;47.554;7.844;2023-07-29T04:30:38;97452.22;;;16.62;100.00
50790;BME280;37287;47.554;7.844;2023-07-29T04:33:09;97460.69;;;16.67;100.00
50790;BME280;37287;47.554;7.844;2023-07-29T04:35:39;97463.00;;;16.69;100.00
50790;BME280;37287;47.554;7.844;2023-07-29T04:38:05;97457.44;;;16.73;100.00
50790;BME280;37287;47.554;7.844;2023-07-29T04:40:37;97453.84;;;16.76;100.00
50790;BME280;37287;47.554;7.844;2023-07-29T04:43:04;97440.94;;;16.76;100.00
50790;BME280;37287;47.554;7.844;2023-07-29T04:45:30;97450.25;;;16.79;100.00
50790;BME280;37287;47.554;7.844;2023-07-29T04:48:05;97452.56;;;16.80;100.00
50790;BME280;37287;47.554;7.844;2023-07-29T04:50:33;97459.91;;;16.83;100.00
50790;BME280;37287;47.554;7.844;2023-07-29T04:53:25;97459.47;;;16.85;100.00
50790;BME280;37287;47.554;7.844;2023-07-29T04:56:16;97462.75;;;16.96;100.00
50790;BME280;37287;47.554;7.844;2023-07-29T04:59:06;97459.75;;;17.07;100.00
50790;BME280;37287;47.554;7.844;2023-07-29T05:01:58;97463.50;;;17.13;100.00
50790;BME280;37287;47.554;7.844;2023-07-29T05:04:32;97468.97;;;17.13;100.00
50790;BME280;37287;47.554;7.844;2023-07-29T05:07:04;97463.00;;;17.18;100.00
50790;BME280;37287;47.554;7.844;2023-07-29T05:09:54;97479.03;;;17.33;100.00
50790;BME280;37287;47.554;7.844;2023-07-29T05:12:45;97473.91;;;17.35;100.00
50790;BME280;37287;47.554;7.844;2023-07-29T05:15:35;97471.06;;;17.39;100.00
50790;BME280;37287;47.554;7.844;2023-07-29T05:18:05;97476.03;;;17.44;100.00
50790;BME280;37287;47.554;7.844;2023-07-29T05:20:31;97479.88;;;17.46;100.00
50790;BME280;37287;47.554;7.844;2023-07-29T05:22:58;97476.28;;;17.49;100.00
50790;BME280;37287;47.554;7.844;2023-07-29T05:25:29;97477.72;;;17.54;100.00
50790;BME280;37287;47.554;7.844;2023-07-29T05:27:55;97481.88;;;17.59;100.00
50790;BME280;37287;47.554;7.844;2023-07-29T05:30:28;97471.72;;;17.59;100.00
50790;BME280;37287;47.554;7.844;2023-07-29T05:32:59;97470.41;;;17.64;100.00
50790;BME280;37287;47.554;7.844;2023-07-29T05:35:32;97467.22;;;17.65;100.00
50790;BME280;37287;47.554;7.844;2023-07-29T05:38:14;97481.50;;;17.73;100.00
50790;BME280;37287;47.554;7.844;2023-07-29T05:41:29;97484.59;;;17.88;100.00
50790;BME280;37287;47.554;7.844;2023-07-29T05:44:45;97484.66;;;18.01;100.00
50790;BME280;37287;47.554;7.844;2023-07-29T05:48:01;97473.41;;;18.12;100.00
50790;BME280;37287;47.554;7.844;2023-07-29T05:51:16;97470.47;;;18.19;100.00
50790;BME280;37287;47.554;7.844;2023-07-29T05:54:32;97469.94;;;18.24;100.00
50790;BME280;37287;47.554;7.844;2023-07-29T05:57:07;97476.16;;;18.25;100.00
50790;BME280;37287;47.554;7.844;2023-07-29T05:59:34;97471.44;;;18.25;100.00
50790;BME280;37287;47.554;7.844;2023-07-29T06:02:00;97470.59;;;18.28;100.00
50790;BME280;37287;47.554;7.844;2023-07-29T06:04:51;97481.00;;;18.33;100.00
50790;BME280;37287;47.554;7.844;2023-07-29T06:07:42;97469.81;;;18.41;100.00
50790;BME280;37287;47.554;7.844;2023-07-29T06:10:37;97472.34;;;18.48;100.00
50790;BME280;37287;47.554;7.844;2023-07-29T06:13:28;97473.19;;;18.70;100.00
50790;BME280;37287;47.554;7.844;2023-07-29T06:16:01;97474.63;;;19.01;100.00
50790;BME280;37287;47.554;7.844;2023-07-29T06:18:53;97478.34;;;19.42;100.00
50790;BME280;37287;47.554;7.844;2023-07-29T06:21:44;97477.00;;;19.82;100.00
50790;BME280;37287;47.554;7.844;2023-07-29T06:24:35;97474.34;;;20.22;100.00
50790;BME280;37287;47.554;7.844;2023-07-29T06:27:26;97482.44;;;20.57;100.00
50790;BME280;37287;47.554;7.844;2023-07-29T06:30:17;97482.00;;;20.59;100.00
50790;BME280;37287;47.554;7.844;2023-07-29T06:33:08;97468.88;;;20.63;100.00
50790;BME280;37287;47.554;7.844;2023-07-29T06:35:59;97472.53;;;20.60;100.00
50790;BME280;37287;47.554;7.844;2023-07-29T06:38:50;97475.78;;;20.68;100.00
50790;BME280;37287;47.554;7.844;2023-07-29T06:41:42;97481.63;;;20.79;100.00
50790;BME280;37287;47.554;7.844;2023-07-29T06:44:33;97482.72;;;20.82;100.00
50790;BME280;37287;47.554;7.844;2023-07-29T06:47:23;97480.72;;;20.82;100.00
50790;BME280;37287;47.554;7.844;2023-07-29T06:50:14;97473.59;;;20.94;100.00
50790;BME280;37287;47.554;7.844;2023-07-29T06:53:05;97476.03;;;21.10;100.00
50790;BME280;37287;47.554;7.844;2023-07-29T06:55:58;97476.69;;;21.33;100.00
50790;BME280;37287;47.554;7.844;2023-07-29T06:58:49;97494.16;;;21.58;100.00
50790;BME280;37287;47.554;7.844;2023-07-29T07:01:40;97496.28;;;21.91;100.00
50790;BME280;37287;47.554;7.844;2023-07-29T07:04:30;97498.25;;;22.09;100.00
50790;BME280;37287;47.554;7.844;2023-07-29T07:07:21;97510.03;;;22.19;100.00
50790;BME280;37287;47.554;7.844;2023-07-29T07:10:13;97497.16;;;22.34;100.00
50790;BME280;37287;47.554;7.844;2023-07-29T07:13:04;97506.72;;;22.48;100.00
50790;BME280;37287;47.554;7.844;2023-07-29T07:15:56;97498.28;;;22.61;100.00
50790;BME280;37287;47.554;7.844;2023-07-29T07:18:29;97502.88;;;22.64;100.00
50790;BME280;37287;47.554;7.844;2023-07-29T07:21:21;97502.34;;;22.75;100.00
50790;BME280;37287;47.554;7.844;2023-07-29T07:24:12;97503.00;;;22.70;99.01
50790;BME280;37287;47.554;7.844;2023-07-29T07:27:05;97503.72;;;22.79;99.72
50790;BME280;37287;47.554;7.844;2023-07-29T07:29:56;97501.25;;;22.81;98.13
50790;BME280;37287;47.554;7.844;2023-07-29T07:32:47;97506.72;;;22.91;99.68
50790;BME280;37287;47.554;7.844;2023-07-29T07:35:18;97503.06;;;23.09;99.45
50790;BME280;37287;47.554;7.844;2023-07-29T07:37:45;97506.16;;;23.11;99.32
50790;BME280;37287;47.554;7.844;2023-07-29T07:40:38;97506.94;;;23.11;97.75
50790;BME280;37287;47.554;7.844;2023-07-29T07:43:29;97503.19;;;23.24;97.01
50790;BME280;37287;47.554;7.844;2023-07-29T07:46:20;97501.88;;;23.34;95.67
50790;BME280;37287;47.554;7.844;2023-07-29T07:49:12;97503.25;;;23.39;96.05
50790;BME280;37287;47.554;7.844;2023-07-29T07:52:03;97496.56;;;23.45;94.15
50790;BME280;37287;47.554;7.844;2023-07-29T07:54:56;97494.97;;;23.53;94.68
50790;BME280;37287;47.554;7.844;2023-07-29T07:57:49;97494.41;;;23.49;94.25
50790;BME280;37287;47.554;7.844;2023-07-29T08:00:40;97491.06;;;23.45;95.25
50790;BME280;37287;47.554;7.844;2023-07-29T08:03:31;97492.41;;;23.26;96.43
50790;BME280;37287;47.554;7.844;2023-07-29T08:06:00;97500.50;;;23.05;98.93
50790;BME280;37287;47.554;7.844;2023-07-29T08:08:51;97490.94;;;23.15;98.40
50790;BME280;37287;47.554;7.844;2023-07-29T08:11:43;97503.19;;;23.24;97.46
50790;BME280;37287;47.554;7.844;2023-07-29T08:14:34;97500.38;;;23.33;96.57
50790;BME280;37287;47.554;7.844;2023-07-29T08:17:24;97500.03;;;23.16;96.85
50790;BME280;37287;47.554;7.844;2023-07-29T08:20:15;97498.84;;;22.98;98.14
50790;BME280;37287;47.554;7.844;2023-07-29T08:23:06;97493.81;;;22.97;98.60
50790;BME280;37287;47.554;7.844;2023-07-29T08:26:00;97490.00;;;23.18;97.42
50790;BME280;37287;47.554;7.844;2023-07-29T08:28:53;97483.63;;;23.12;96.41
50790;BME280;37287;47.554;7.844;2023-07-29T08:31:45;97476.59;;;23.02;97.84
50790;BME280;37287;47.554;7.844;2023-07-29T08:34:38;97476.41;;;23.06;97.95
50790;BME280;37287;47.554;7.844;2023-07-29T08:37:29;97469.09;;;23.27;96.27
50790;BME280;37287;47.554;7.844;2023-07-29T08:40:27;97472.81;;;23.24;95.36
50790;BME280;37287;47.554;7.844;2023-07-29T08:42:58;97471.94;;;23.17;95.91
50790;BME280;37287;47.554;7.844;2023-07-29T08:45:34;97472.06;;;23.23;95.23
50790;BME280;37287;47.554;7.844;2023-07-29T08:48:42;97472.16;;;23.29;93.61
50790;BME280;37287;47.554;7.844;2023-07-29T08:51:33;97469.53;;;23.49;94.04
50790;BME280;37287;47.554;7.844;2023-07-29T08:54:25;97475.28;;;23.61;93.59
50790;BME280;37287;47.554;7.844;2023-07-29T08:57:16;97470.91;;;23.69;93.22
50790;BME280;37287;47.554;7.844;2023-07-29T09:00:07;97471.88;;;23.81;92.26
50790;BME280;37287;47.554;7.844;2023-07-29T09:02:57;97467.63;;;23.95;91.86
50790;BME280;37287;47.554;7.844;2023-07-29T09:05:52;97469.41;;;23.98;93.00
50790;BME280;37287;47.554;7.844;2023-07-29T09:30:24;97462.47;;;24.83;86.75
50790;BME280;37287;47.554;7.844;2023-07-29T09:33:17;97459.50;;;24.86;86.66
50790;BME280;37287;47.554;7.844;2023-07-29T09:36:09;97459.31;;;25.31;85.17
50790;BME280;37287;47.554;7.844;2023-07-29T09:39:01;97456.88;;;25.18;85.93
50790;BME280;37287;47.554;7.844;2023-07-29T09:41:53;97450.31;;;25.16;85.54
50790;BME280;37287;47.554;7.844;2023-07-29T09:44:44;97451.63;;;25.41;84.50
50790;BME280;37287;47.554;7.844;2023-07-29T09:47:35;97448.00;;;25.55;83.33
50790;BME280;37287;47.554;7.844;2023-07-29T09:50:27;97448.50;;;25.54;82.39
50790;BME280;37287;47.554;7.844;2023-07-29T09:53:07;97446.13;;;25.26;82.34
50790;BME280;37287;47.554;7.844;2023-07-29T09:55:34;97445.81;;;25.39;82.61
50790;BME280;37287;47.554;7.844;2023-07-29T09:58:26;97463.47;;;25.62;81.42
50790;BME280;37287;47.554;7.844;2023-07-29T10:01:17;97453.56;;;25.82;80.06
50790;BME280;37287;47.554;7.844;2023-07-29T10:03:46;97450.31;;;25.83;79.76
50790;BME280;37287;47.554;7.844;2023-07-29T10:06:15;97443.97;;;25.83;78.92
50790;BME280;37287;47.554;7.844;2023-07-29T10:09:11;97452.09;;;25.86;78.46
50790;BME280;37287;47.554;7.844;2023-07-29T10:12:04;97449.88;;;25.90;78.10
50790;BME280;37287;47.554;7.844;2023-07-29T10:15:07;97453.63;;;25.87;77.76
50790;BME280;37287;47.554;7.844;2023-07-29T10:17:57;97448.84;;;25.88;77.64
50790;BME280;37287;47.554;7.844;2023-07-29T10:20:50;97444.09;;;25.68;78.24
50790;BME280;37287;47.554;7.844;2023-07-29T10:23:45;97442.44;;;25.76;77.85
50790;BME280;37287;47.554;7.844;2023-07-29T10:26:39;97439.88;;;25.99;76.29
50790;BME280;37287;47.554;7.844;2023-07-29T10:29:31;97441.09;;;25.98;76.77
50790;BME280;37287;47.554;7.844;2023-07-29T10:32:25;97438.88;;;25.75;77.88
50790;BME280;37287;47.554;7.844;2023-07-29T10:35:16;97439.31;;;25.95;77.04
50790;BME280;37287;47.554;7.844;2023-07-29T10:38:10;97430.59;;;26.02;76.17
50790;BME280;37287;47.554;7.844;2023-07-29T10:41:00;97432.25;;;25.94;76.12
50790;BME280;37287;47.554;7.844;2023-07-29T10:43:53;97425.06;;;25.81;76.32
50790;BME280;37287;47.554;7.844;2023-07-29T10:46:44;97423.13;;;25.87;75.54
50790;BME280;37287;47.554;7.844;2023-07-29T10:49:37;97422.03;;;25.79;76.13
50790;BME280;37287;47.554;7.844;2023-07-29T10:52:40;97424.59;;;25.56;75.45
50790;BME280;37287;47.554;7.844;2023-07-29T10:55:32;97419.38;;;25.38;74.55
50790;BME280;37287;47.554;7.844;2023-07-29T10:58:23;97424.47;;;25.24;75.18
50790;BME280;37287;47.554;7.844;2023-07-29T11:01:26;97423.03;;;25.09;75.34
50790;BME280;37287;47.554;7.844;2023-07-29T11:10:06;97407.00;;;25.39;74.53
50790;BME280;37287;47.554;7.844;2023-07-29T11:12:56;97410.69;;;25.30;75.07
50790;BME280;37287;47.554;7.844;2023-07-29T11:15:49;97403.81;;;25.46;75.33
50790;BME280;37287;47.554;7.844;2023-07-29T11:18:40;97410.06;;;25.67;73.73
50790;BME280;37287;47.554;7.844;2023-07-29T11:21:34;97402.34;;;25.77;72.93
50790;BME280;37287;47.554;7.844;2023-07-29T11:24:26;97395.25;;;25.70;73.36
50790;BME280;37287;47.554;7.844;2023-07-29T11:27:18;97385.59;;;25.66;73.12
50790;BME280;37287;47.554;7.844;2023-07-29T11:30:13;97387.56;;;25.60;73.15
50790;BME280;37287;47.554;7.844;2023-07-29T11:33:03;97388.28;;;25.54;72.83
50790;BME280;37287;47.554;7.844;2023-07-29T11:35:54;97378.31;;;25.42;72.08
50790;BME280;37287;47.554;7.844;2023-07-29T11:38:45;97376.69;;;25.30;71.74
50790;BME280;37287;47.554;7.844;2023-07-29T11:41:35;97379.03;;;25.16;71.46
50790;BME280;37287;47.554;7.844;2023-07-29T11:44:28;97397.06;;;25.06;71.02
50790;BME280;37287;47.554;7.844;2023-07-29T11:47:20;97394.97;;;25.01;71.24
50790;BME280;37287;47.554;7.844;2023-07-29T11:50:12;97391.94;;;24.99;71.34
50790;BME280;37287;47.554;7.844;2023-07-29T11:53:05;97390.41;;;24.98;70.60
50790;BME280;37287;47.554;7.844;2023-07-29T11:55:56;97389.16;;;24.99;70.26
50790;BME280;37287;47.554;7.844;2023-07-29T11:59:11;97398.22;;;24.99;69.46
50790;BME280;37287;47.554;7.844;2023-07-29T12:02:29;97409.31;;;24.99;70.52
50790;BME280;37287;47.554;7.844;2023-07-29T12:05:50;97403.22;;;24.95;69.66
50790;BME280;37287;47.554;7.844;2023-07-29T12:09:06;97412.97;;;24.91;69.03
50790;BME280;37287;47.554;7.844;2023-07-29T12:12:22;97417.69;;;24.84;67.27
50790;BME280;37287;47.554;7.844;2023-07-29T12:15:38;97426.78;;;24.70;64.49
50790;BME280;37287;47.554;7.844;2023-07-29T12:18:54;97422.59;;;24.75;66.70
50790;BME280;37287;47.554;7.844;2023-07-29T12:21:50;97422.78;;;24.71;65.98
50790;BME280;37287;47.554;7.844;2023-07-29T12:25:06;97423.69;;;24.62;65.32
50790;BME280;37287;47.554;7.844;2023-07-29T12:28:05;97419.38;;;24.61;65.00
50790;BME280;37287;47.554;7.844;2023-07-29T12:30:57;97411.84;;;24.62;65.15
50790;BME280;37287;47.554;7.844;2023-07-29T12:33:47;97420.66;;;24.60;65.21
50790;BME280;37287;47.554;7.844;2023-07-29T12:36:45;97416.03;;;24.57;65.21
50790;BME280;37287;47.554;7.844;2023-07-29T12:39:40;97423.09;;;24.58;65.26
50790;BME280;37287;47.554;7.844;2023-07-29T12:42:18;97427.00;;;24.51;64.99
50790;BME280;37287;47.554;7.844;2023-07-29T12:45:08;97454.59;;;24.46;65.17
50790;BME280;37287;47.554;7.844;2023-07-29T12:47:59;97474.00;;;24.31;66.92
50790;BME280;37287;47.554;7.844;2023-07-29T12:50:50;97495.47;;;24.06;69.66
50790;BME280;37287;47.554;7.844;2023-07-29T12:53:41;97508.28;;;23.79;71.36
50790;BME280;37287;47.554;7.844;2023-07-29T12:56:33;97522.09;;;23.40;75.72
50790;BME280;37287;47.554;7.844;2023-07-29T12:59:25;97536.38;;;22.81;82.50
50790;BME280;37287;47.554;7.844;2023-07-29T13:02:17;97527.75;;;22.45;87.62
50790;BME280;37287;47.554;7.844;2023-07-29T13:05:12;97525.03;;;22.08;90.44
50790;BME280;37287;47.554;7.844;2023-07-29T13:08:02;97522.00;;;21.97;93.24
50790;BME280;37287;47.554;7.844;2023-07-29T13:10:53;97515.75;;;21.78;93.44
50790;BME280;37287;47.554;7.844;2023-07-29T13:13:23;97512.69;;;21.67;95.79
50790;BME280;37287;47.554;7.844;2023-07-29T13:15:51;97513.00;;;21.59;96.55
50790;BME280;37287;47.554;7.844;2023-07-29T13:18:43;97510.84;;;21.54;96.83
50790;BME280;37287;47.554;7.844;2023-07-29T13:21:35;97508.53;;;21.43;96.99
50790;BME280;37287;47.554;7.844;2023-07-29T13:24:25;97513.41;;;21.39;99.60
50790;BME280;37287;47.554;7.844;2023-07-29T13:27:16;97506.03;;;21.36;100.00
50790;BME280;37287;47.554;7.844;2023-07-29T13:30:08;97514.78;;;21.25;100.00
50790;BME280;37287;47.554;7.844;2023-07-29T13:32:59;97506.66;;;21.22;100.00
50790;BME280;37287;47.554;7.844;2023-07-29T13:35:49;97503.88;;;21.12;100.00
50790;BME280;37287;47.554;7.844;2023-07-29T13:38:41;97518.72;;;21.15;100.00
50790;BME280;37287;47.554;7.844;2023-07-29T13:41:31;97519.00;;;21.08;100.00
50790;BME280;37287;47.554;7.844;2023-07-29T13:44:22;97526.63;;;21.04;100.00
50790;BME280;37287;47.554;7.844;2023-07-29T13:47:13;97543.88;;;20.95;100.00
50790;BME280;37287;47.554;7.844;2023-07-29T13:50:06;97539.06;;;20.68;100.00
50790;BME280;37287;47.554;7.844;2023-07-29T13:52:59;97539.44;;;20.57;100.00
50790;BME280;37287;47.554;7.844;2023-07-29T13:56:16;97550.50;;;20.44;100.00
50790;BME280;37287;47.554;7.844;2023-07-29T13:59:07;97548.19;;;20.33;100.00
50790;BME280;37287;47.554;7.844;2023-07-29T14:02:00;97556.44;;;20.33;100.00
50790;BME280;37287;47.554;7.844;2023-07-29T14:04:53;97572.41;;;20.25;100.00
50790;BME280;37287;47.554;7.844;2023-07-29T14:07:43;97563.66;;;20.18;100.00
50790;BME280;37287;47.554;7.844;2023-07-29T14:10:35;97544.72;;;20.20;100.00
50790;BME280;37287;47.554;7.844;2023-07-29T14:13:25;97571.72;;;20.12;100.00
50790;BME280;37287;47.554;7.844;2023-07-29T14:16:16;97562.81;;;20.08;100.00
50790;BME280;37287;47.554;7.844;2023-07-29T14:19:06;97568.19;;;20.12;100.00
50790;BME280;37287;47.554;7.844;2023-07-29T14:21:58;97567.53;;;20.07;100.00
50790;BME280;37287;47.554;7.844;2023-07-29T14:24:33;97572.72;;;20.05;100.00
50790;BME280;37287;47.554;7.844;2023-07-29T14:27:02;97572.28;;;20.07;100.00
50790;BME280;37287;47.554;7.844;2023-07-29T14:29:55;97570.53;;;20.00;100.00
50790;BME280;37287;47.554;7.844;2023-07-29T14:32:45;97566.59;;;20.01;100.00
50790;BME280;37287;47.554;7.844;2023-07-29T14:35:35;97571.00;;;19.99;100.00
50790;BME280;37287;47.554;7.844;2023-07-29T14:38:26;97578.13;;;19.96;100.00
50790;BME280;37287;47.554;7.844;2023-07-29T14:41:19;97571.88;;;19.96;100.00
50790;BME280;37287;47.554;7.844;2023-07-29T14:44:10;97577.06;;;19.93;100.00
50790;BME280;37287;47.554;7.844;2023-07-29T14:47:02;97585.31;;;19.93;100.00
50790;BME280;37287;47.554;7.844;2023-07-29T14:49:53;97585.75;;;19.92;100.00
50790;BME280;37287;47.554;7.844;2023-07-29T14:52:44;97583.88;;;19.89;100.00
50790;BME280;37287;47.554;7.844;2023-07-29T14:55:34;97592.56;;;19.87;100.00
50790;BME280;37287;47.554;7.844;2023-07-29T14:58:26;97595.31;;;19.87;100.00
50790;BME280;37287;47.554;7.844;2023-07-29T15:01:16;97590.91;;;19.90;100.00
50790;BME280;37287;47.554;7.844;2023-07-29T15:04:08;97597.06;;;19.94;100.00
50790;BME280;37287;47.554;7.844;2023-07-29T15:06:38;97590.22;;;19.99;100.00
50790;BME280;37287;47.554;7.844;2023-07-29T15:09:31;97595.72;;;19.99;100.00
50790;BME280;37287;47.554;7.844;2023-07-29T15:12:23;97602.31;;;20.01;100.00
50790;BME280;37287;47.554;7.844;2023-07-29T15:15:16;97588.25;;;19.99;100.00
50790;BME280;37287;47.554;7.844;2023-07-29T15:18:07;97587.28;;;19.93;100.00
50790;BME280;37287;47.554;7.844;2023-07-29T15:20:59;97586.44;;;19.83;100.00